Time;durP1;ratioP1;P1;durP2;ratioP2;P2;SDS_P1;SDS_P2;PMS_P1;PMS_P2;Temp;Humidity;BMP_temperature;BMP_pressure;BME280_temperature;BME280_humidity;BME280_pressure;Samples;Min_cycle;Max_cycle;Signal;HPM_P1;HPM_P2
2021/04/24 00:01:37;;;;;;;5.55;2.40;;;7.90;87.70;;;;;;5038563;28;20355;-67
2021/04/24 00:04:04;;;;;;;7.65;2.60;;;7.90;88.30;;;;;;5038692;28;20057;-67
2021/04/24 00:06:30;;;;;;;5.22;2.75;;;7.80;89.10;;;;;;5038476;28;20100;-67
2021/04/24 00:08:57;;;;;;;8.13;3.15;;;7.80;89.90;;;;;;5038550;28;20029;-66
2021/04/24 00:11:24;;;;;;;8.52;2.80;;;7.70;90.30;;;;;;5038420;28;20035;-67
2021/04/24 00:13:51;;;;;;;3.63;2.20;;;7.60;90.90;;;;;;5038663;28;20037;-67
2021/04/24 00:16:19;;;;;;;7.57;2.30;;;7.60;91.50;;;;;;5038457;28;20108;-67
2021/04/24 00:18:46;;;;;;;5.53;2.38;;;7.50;91.90;;;;;;5038529;28;20440;-66
2021/04/24 00:21:12;;;;;;;7.70;2.33;;;7.50;92.30;;;;;;5038180;28;20072;-67
2021/04/24 00:23:38;;;;;;;6.03;2.72;;;7.40;93.00;;;;;;5037219;28;20033;-67
2021/04/24 00:26:04;;;;;;;6.53;2.40;;;7.50;93.30;;;;;;5038458;28;20121;-65
2021/04/24 00:28:30;;;;;;;7.63;2.95;;;7.50;93.50;;;;;;5037993;28;20095;-66
2021/04/24 00:30:56;;;;;;;8.38;3.40;;;7.40;94.20;;;;;;5038313;28;20029;-66
2021/04/24 00:33:22;;;;;;;11.05;3.35;;;7.40;94.50;;;;;;5037996;28;20029;-67
2021/04/24 00:35:48;;;;;;;11.07;3.58;;;7.40;94.80;;;;;;5038444;28;20505;-67
2021/04/24 00:38:13;;;;;;;13.15;3.63;;;7.30;95.30;;;;;;5030245;28;20030;-67
2021/04/24 00:40:39;;;;;;;8.40;3.22;;;7.40;95.90;;;;;;5038283;28;20029;-66
2021/04/24 00:43:05;;;;;;;6.38;3.00;;;7.30;96.30;;;;;;5038323;28;20431;-67
2021/04/24 00:45:31;;;;;;;12.25;3.38;;;7.20;96.80;;;;;;5035386;28;20043;-66
2021/04/24 00:47:59;;;;;;;7.93;3.60;;;7.20;97.20;;;;;;5035098;28;20053;-65
2021/04/24 00:50:33;;;;;;;7.60;3.47;;;7.20;97.80;;;;;;5035005;28;20033;-67
2021/04/24 00:52:59;;;;;;;9.48;3.42;;;7.30;98.00;;;;;;5035133;28;20033;-67
2021/04/24 00:55:26;;;;;;;12.77;3.63;;;7.50;98.20;;;;;;5034976;28;20029;-66
2021/04/24 00:57:52;;;;;;;6.78;3.45;;;7.40;98.50;;;;;;5034979;28;20488;-67
2021/04/24 01:00:23;;;;;;;7.32;3.20;;;7.50;98.80;;;;;;5033713;28;20079;-67
2021/04/24 01:02:51;;;;;;;13.63;3.80;;;7.50;99.00;;;;;;5034710;28;20057;-66
2021/04/24 01:05:28;;;;;;;13.07;3.95;;;7.50;99.30;;;;;;5034865;28;20128;-67
2021/04/24 01:07:53;;;;;;;6.72;3.13;;;7.50;99.60;;;;;;5034494;28;20053;-67
2021/04/24 01:10:20;;;;;;;7.45;3.75;;;7.40;99.90;;;;;;5034720;28;20616;-67
2021/04/24 01:12:47;;;;;;;8.25;4.00;;;7.40;99.90;;;;;;5034439;28;20490;-67
2021/04/24 01:15:18;;;;;;;7.40;3.63;;;7.40;99.90;;;;;;5034753;28;20099;-67
2021/04/24 01:17:44;;;;;;;8.90;4.00;;;7.30;99.90;;;;;;5034396;28;20026;-66
2021/04/24 01:20:12;;;;;;;11.05;3.47;;;7.20;99.90;;;;;;5034425;28;20033;-66
2021/04/24 01:22:41;;;;;;;9.00;4.50;;;7.30;99.90;;;;;;5016630;28;20025;-67
2021/04/24 01:25:13;;;;;;;14.30;4.28;;;7.30;99.90;;;;;;5034560;28;20065;-66
2021/04/24 01:27:40;;;;;;;10.48;4.60;;;7.40;99.90;;;;;;5034311;28;20121;-68
2021/04/24 01:30:09;;;;;;;11.85;3.60;;;7.30;99.90;;;;;;5034350;28;20072;-68
2021/04/24 01:32:37;;;;;;;8.73;4.00;;;7.30;99.90;;;;;;5034229;28;20029;-68
2021/04/24 01:35:09;;;;;;;8.30;3.85;;;7.20;99.90;;;;;;5034379;28;20025;-68
2021/04/24 01:37:35;;;;;;;9.60;4.00;;;7.20;99.90;;;;;;5034149;28;20029;-67
2021/04/24 01:40:01;;;;;;;9.60;4.55;;;7.10;99.90;;;;;;5033999;28;20104;-67
2021/04/24 01:42:27;;;;;;;12.52;4.55;;;7.10;99.90;;;;;;5034069;28;20120;-67
2021/04/24 01:44:53;;;;;;;9.45;4.10;;;7.10;99.90;;;;;;5034176;28;20398;-67
2021/04/24 01:47:19;;;;;;;11.57;3.53;;;7.00;99.90;;;;;;5033811;28;20025;-67
2021/04/24 01:49:45;;;;;;;8.90;3.92;;;7.00;99.90;;;;;;5033898;28;20035;-67
2021/04/24 01:52:11;;;;;;;8.23;3.22;;;6.90;99.90;;;;;;5033994;28;20433;-67
2021/04/24 01:54:36;;;;;;;10.15;4.00;;;6.90;99.90;;;;;;5033880;28;20034;-67
2021/04/24 01:57:02;;;;;;;8.68;3.83;;;6.80;99.90;;;;;;5033350;28;20037;-67
2021/04/24 01:59:32;;;;;;;11.98;4.03;;;6.80;99.90;;;;;;5033711;28;20443;-67
2021/04/24 02:01:58;;;;;;;12.27;3.97;;;6.90;99.90;;;;;;5032433;28;20087;-66
2021/04/24 02:04:26;;;;;;;9.48;3.72;;;6.80;99.90;;;;;;5033788;28;20033;-67
2021/04/24 02:06:53;;;;;;;9.52;4.53;;;6.80;99.90;;;;;;5033792;28;20037;-67
2021/04/24 02:09:20;;;;;;;9.18;4.13;;;6.80;99.90;;;;;;5033629;28;20121;-67
2021/04/24 02:11:59;;;;;;;14.40;4.75;;;6.80;99.90;;;;;;5033514;28;20033;-67
2021/04/24 02:14:25;;;;;;;11.70;5.45;;;6.70;99.90;;;;;;5033504;28;20038;-67
2021/04/24 02:16:51;;;;;;;10.30;4.18;;;6.60;99.90;;;;;;5033268;28;20029;-68
2021/04/24 02:19:17;;;;;;;16.52;4.43;;;6.60;99.90;;;;;;5033403;28;20099;-67
2021/04/24 02:21:43;;;;;;;7.30;3.72;;;6.60;99.90;;;;;;5033000;28;20537;-67
2021/04/24 02:24:09;;;;;;;11.30;4.45;;;6.60;99.90;;;;;;5033383;28;20034;-66
2021/04/24 02:26:35;;;;;;;8.75;3.88;;;6.50;99.90;;;;;;5033174;28;20053;-68
2021/04/24 02:29:01;;;;;;;14.35;4.45;;;6.50;99.90;;;;;;5033214;28;20064;-67
2021/04/24 02:31:28;;;;;;;10.30;4.00;;;6.40;99.90;;;;;;5033103;28;20037;-67
2021/04/24 02:33:55;;;;;;;9.40;3.95;;;6.40;99.90;;;;;;5033215;28;20029;-67
2021/04/24 02:36:20;;;;;;;9.05;3.53;;;6.40;99.90;;;;;;5033210;28;20180;-67
2021/04/24 02:38:52;;;;;;;9.20;4.65;;;6.30;99.90;;;;;;5032914;28;20547;-66
2021/04/24 02:41:18;;;;;;;;;;;6.30;99.90;;;;;;5033521;28;20532;-67
2021/04/24 02:43:44;;;;;;;9.02;4.00;;;6.20;99.90;;;;;;5032684;28;20300;-67
2021/04/24 02:46:10;;;;;;;7.93;3.60;;;6.20;99.90;;;;;;5031841;28;20091;-67
2021/04/24 02:48:36;;;;;;;11.65;4.10;;;6.20;99.90;;;;;;5032855;28;20057;-67
2021/04/24 02:51:01;;;;;;;14.23;4.90;;;6.10;99.90;;;;;;5032817;28;20037;-67
2021/04/24 02:53:28;;;;;;;9.98;4.15;;;6.10;99.90;;;;;;5032899;28;20167;-69
2021/04/24 02:55:53;;;;;;;14.95;4.28;;;6.20;99.90;;;;;;5032927;28;20475;-68
2021/04/24 02:58:19;;;;;;;11.52;4.53;;;6.10;99.90;;;;;;5032715;28;20057;-67
2021/04/24 03:00:46;;;;;;;8.02;3.90;;;6.10;99.90;;;;;;5032609;28;20091;-67
2021/04/24 03:03:14;;;;;;;10.38;4.85;;;6.10;99.90;;;;;;5032655;28;20056;-67
2021/04/24 03:05:42;;;;;;;8.52;3.30;;;6.00;99.90;;;;;;5032599;28;20052;-66
2021/04/24 03:08:10;;;;;;;7.95;3.67;;;5.90;99.90;;;;;;5032040;28;20079;-66
2021/04/24 03:10:39;;;;;;;13.02;4.10;;;5.90;99.90;;;;;;5032460;28;20033;-67
2021/04/24 03:13:07;;;;;;;10.70;4.30;;;5.80;99.90;;;;;;5032435;28;20048;-67
2021/04/24 03:15:34;;;;;;;11.07;4.53;;;5.70;99.90;;;;;;5032063;28;20029;-67
2021/04/24 03:18:00;;;;;;;13.27;4.43;;;5.70;99.90;;;;;;5031390;28;20033;-67
2021/04/24 03:20:26;;;;;;;12.25;4.00;;;5.60;99.90;;;;;;5032258;28;20110;-67
2021/04/24 03:22:52;;;;;;;11.13;4.22;;;5.50;99.90;;;;;;5032434;28;20041;-66
2021/04/24 03:25:18;;;;;;;10.32;4.32;;;5.60;99.90;;;;;;5032445;28;20061;-67
2021/04/24 03:27:44;;;;;;;13.15;3.97;;;5.60;99.90;;;;;;5032036;28;20095;-68
2021/04/24 03:30:14;;;;;;;8.20;3.83;;;5.50;99.90;;;;;;5014404;28;20037;-67
2021/04/24 03:32:40;;;;;;;7.25;3.85;;;5.50;99.90;;;;;;5032010;28;20060;-67
2021/04/24 03:35:08;;;;;;;9.57;4.03;;;5.50;99.90;;;;;;5032310;28;20083;-66
2021/04/24 03:37:34;;;;;;;9.27;4.13;;;5.50;99.90;;;;;;5032187;28;20029;-66
2021/04/24 03:40:00;;;;;;;13.85;4.40;;;5.40;99.90;;;;;;5032236;28;20064;-67
2021/04/24 03:42:26;;;;;;;9.50;3.88;;;5.30;99.90;;;;;;5032348;28;20034;-67
2021/04/24 03:44:52;;;;;;;9.30;4.00;;;5.40;99.90;;;;;;5032102;28;20038;-67
2021/04/24 03:47:17;;;;;;;12.48;4.28;;;5.20;99.90;;;;;;5032270;28;20087;-67
2021/04/24 03:49:43;;;;;;;8.00;3.75;;;5.20;99.90;;;;;;5031944;28;20038;-67
2021/04/24 03:52:09;;;;;;;9.52;4.50;;;5.20;99.90;;;;;;5032253;28;20037;-67
2021/04/24 03:54:35;;;;;;;8.43;4.35;;;5.20;99.90;;;;;;5031980;28;20033;-67
2021/04/24 03:57:01;;;;;;;9.90;4.20;;;5.20;99.90;;;;;;5032190;28;20061;-68
2021/04/24 03:59:26;;;;;;;11.65;4.88;;;5.30;99.90;;;;;;5032015;28;20030;-68
2021/04/24 04:01:52;;;;;;;12.32;4.25;;;5.30;99.90;;;;;;5031926;28;20462;-68
2021/04/24 04:04:18;;;;;;;9.70;4.38;;;5.20;99.90;;;;;;5031998;28;20041;-67
2021/04/24 04:06:44;;;;;;;11.63;4.25;;;5.20;99.90;;;;;;5031932;28;20417;-68
2021/04/24 04:09:09;;;;;;;9.88;4.28;;;5.10;99.90;;;;;;5031835;28;20025;-66
2021/04/24 04:11:35;;;;;;;11.48;4.25;;;5.00;99.90;;;;;;5031990;28;20041;-67
2021/04/24 04:14:01;;;;;;;11.85;4.63;;;5.10;99.90;;;;;;5031916;28;20365;-67
2021/04/24 04:16:27;;;;;;;9.13;3.97;;;5.00;99.90;;;;;;5013983;28;20458;-66
2021/04/24 04:18:53;;;;;;;15.20;4.63;;;4.90;99.90;;;;;;5031878;28;20061;-66
2021/04/24 04:21:20;;;;;;;11.60;4.95;;;5.00;99.90;;;;;;5033798;28;20095;-66
2021/04/24 04:23:46;;;;;;;10.07;4.60;;;5.00;99.90;;;;;;5035306;28;20414;-67
2021/04/24 04:26:11;;;;;;;7.80;4.30;;;5.00;99.90;;;;;;5035646;28;20040;-67
2021/04/24 04:28:37;;;;;;;11.77;4.00;;;5.00;99.90;;;;;;5035417;28;20037;-67
2021/04/24 04:31:03;;;;;;;14.93;5.60;;;4.90;99.90;;;;;;5035439;28;20037;-68
2021/04/24 04:33:30;;;;;;;8.60;4.40;;;4.90;99.90;;;;;;5035313;28;20099;-67
2021/04/24 04:36:00;;;;;;;10.18;4.25;;;4.90;99.90;;;;;;5035245;28;20044;-68
2021/04/24 04:38:26;;;;;;;10.35;4.47;;;4.80;99.90;;;;;;5035424;28;20031;-68
2021/04/24 04:40:52;;;;;;;8.90;4.85;;;4.90;99.90;;;;;;5035160;28;20037;-67
2021/04/24 04:43:17;;;;;;;8.68;3.92;;;4.90;99.90;;;;;;5035342;28;20040;-66
2021/04/24 04:45:43;;;;;;;9.00;4.32;;;4.80;99.90;;;;;;5035139;28;20372;-67
2021/04/24 04:48:09;;;;;;;7.80;4.20;;;4.80;99.90;;;;;;5035266;28;20037;-67
2021/04/24 04:50:38;;;;;;;17.08;4.88;;;4.90;99.90;;;;;;5035059;28;20120;-67
2021/04/24 04:53:04;;;;;;;13.63;4.10;;;4.70;99.90;;;;;;5035073;28;20083;-68
2021/04/24 04:55:31;;;;;;;12.80;5.38;;;4.70;99.90;;;;;;5035054;28;20029;-67
2021/04/24 04:57:57;;;;;;;7.75;3.85;;;4.70;99.90;;;;;;5034852;28;20040;-67
2021/04/24 05:00:25;;;;;;;10.80;5.03;;;4.80;99.90;;;;;;5034966;28;20163;-67
2021/04/24 05:02:52;;;;;;;14.45;5.18;;;4.80;99.90;;;;;;5034877;28;20025;-68
2021/04/24 05:05:19;;;;;;;9.50;4.47;;;4.80;99.90;;;;;;5033667;28;20033;-68
2021/04/24 05:07:47;;;;;;;10.63;4.65;;;4.80;99.90;;;;;;5034749;28;20029;-68
2021/04/24 05:10:13;;;;;;;11.52;4.47;;;4.90;99.90;;;;;;5034408;28;20493;-68
2021/04/24 05:12:38;;;;;;;6.88;3.78;;;5.00;99.90;;;;;;5034614;28;20061;-67
2021/04/24 05:15:06;;;;;;;12.68;3.85;;;5.00;99.90;;;;;;5034701;28;20064;-67
2021/04/24 05:17:31;;;;;;;11.98;4.15;;;5.10;99.90;;;;;;5034420;28;20033;-67
2021/04/24 05:19:57;;;;;;;9.35;4.00;;;5.20;99.90;;;;;;5034316;28;20106;-67
2021/04/24 05:22:23;;;;;;;13.50;4.65;;;5.20;99.90;;;;;;5034219;28;20124;-67
2021/04/24 05:24:50;;;;;;;14.27;4.63;;;5.30;99.90;;;;;;5034419;28;20057;-71
2021/04/24 05:27:15;;;;;;;10.10;4.40;;;5.40;99.90;;;;;;5033194;28;20402;-68
2021/04/24 05:29:41;;;;;;;10.70;4.43;;;5.50;99.90;;;;;;5033760;28;20042;-71
2021/04/24 05:32:07;;;;;;;17.70;4.55;;;5.60;99.90;;;;;;5032470;28;20030;-71
2021/04/24 05:34:33;;;;;;;15.55;4.55;;;5.60;99.90;;;;;;5033360;28;20482;-70
2021/04/24 05:37:00;;;;;;;9.55;4.70;;;5.80;99.90;;;;;;5034064;28;20111;-71
2021/04/24 05:39:26;;;;;;;10.88;4.22;;;5.80;99.90;;;;;;5034161;28;20057;-69
2021/04/24 05:41:52;;;;;;;10.55;4.75;;;5.90;99.90;;;;;;5033945;28;20052;-69
2021/04/24 05:44:19;;;;;;;8.93;4.90;;;5.90;99.90;;;;;;5034106;28;20505;-69
2021/04/24 05:46:44;;;;;;;11.45;4.50;;;5.90;99.90;;;;;;5033936;28;20037;-70
2021/04/24 05:49:10;;;;;;;8.95;4.22;;;6.00;99.90;;;;;;5033993;28;20462;-69
2021/04/24 05:51:36;;;;;;;12.23;4.40;;;6.20;99.90;;;;;;5033497;28;20037;-70
2021/04/24 05:54:02;;;;;;;9.52;4.03;;;6.20;99.90;;;;;;5033789;28;20069;-69
2021/04/24 05:56:27;;;;;;;14.05;5.32;;;6.30;99.90;;;;;;5033817;28;20037;-68
2021/04/24 05:58:53;;;;;;;13.23;4.95;;;6.30;99.90;;;;;;5033659;28;20028;-68
2021/04/24 06:01:19;;;;;;;8.95;4.80;;;6.40;99.90;;;;;;5015650;28;20136;-69
2021/04/24 06:03:45;;;;;;;7.78;4.20;;;6.50;99.90;;;;;;5033643;28;20033;-68
2021/04/24 06:06:11;;;;;;;11.02;4.10;;;6.50;99.90;;;;;;5033545;28;20029;-68
2021/04/24 06:08:37;;;;;;;12.77;5.05;;;6.60;99.90;;;;;;5033641;28;20136;-69
2021/04/24 06:11:03;;;;;;;9.30;3.90;;;6.70;99.90;;;;;;5033291;28;20045;-68
2021/04/24 06:13:29;;;;;;;8.68;3.80;;;6.90;99.90;;;;;;5033358;28;20033;-74
2021/04/24 06:15:56;;;;;;;13.63;3.63;;;7.00;99.90;;;;;;5033287;28;20029;-68
2021/04/24 06:18:23;;;;;;;11.48;4.32;;;7.10;99.90;;;;;;5033417;28;20025;-69
2021/04/24 06:20:48;;;;;;;10.05;4.47;;;7.20;99.90;;;;;;5032912;28;20099;-70
2021/04/24 06:23:14;;;;;;;10.15;4.55;;;7.30;99.90;;;;;;5032805;28;20038;-66
2021/04/24 06:25:41;;;;;;;6.18;3.53;;;7.50;99.90;;;;;;5033445;28;20041;-66
2021/04/24 06:28:08;;;;;;;7.60;4.05;;;7.70;99.90;;;;;;5033211;28;20034;-69
2021/04/24 06:30:34;;;;;;;9.70;4.18;;;7.80;99.90;;;;;;5033236;28;20112;-70
2021/04/24 06:33:00;;;;;;;10.63;3.70;;;7.90;99.90;;;;;;5035644;28;20109;-68
2021/04/24 06:35:28;;;;;;;7.30;3.67;;;8.00;99.90;;;;;;5032855;28;20451;-68
2021/04/24 06:37:56;;;;;;;19.77;4.72;;;8.00;99.90;;;;;;5032947;28;20029;-69
2021/04/24 06:40:23;;;;;;;9.30;4.68;;;8.10;99.90;;;;;;5033129;28;20083;-70
2021/04/24 06:42:49;;;;;;;8.88;3.55;;;8.10;99.90;;;;;;5032120;28;20030;-69
2021/04/24 06:45:16;;;;;;;9.07;4.53;;;8.20;99.90;;;;;;5015198;28;20032;-67
2021/04/24 06:47:42;;;;;;;11.43;4.25;;;8.20;99.90;;;;;;5032865;28;20509;-73
2021/04/24 06:50:11;;;;;;;11.18;3.90;;;8.30;99.90;;;;;;5032972;28;20029;-70
2021/04/24 06:52:40;;;;;;;11.50;4.05;;;8.40;99.90;;;;;;5031845;28;20462;-69
2021/04/24 06:55:12;;;;;;;8.43;3.92;;;8.60;99.90;;;;;;5032840;28;20029;-69
2021/04/24 06:57:38;;;;;;;10.05;4.35;;;8.60;99.90;;;;;;5032917;28;20466;-71
2021/04/24 07:00:07;;;;;;;11.88;4.05;;;8.70;99.90;;;;;;5032842;28;20041;-70
2021/04/24 07:02:34;;;;;;;11.43;5.35;;;8.70;99.90;;;;;;5032917;28;20036;-71
2021/04/24 07:05:04;;;;;;;27.00;10.13;;;8.80;99.90;;;;;;5032512;28;20048;-69
2021/04/24 07:07:30;;;;;;;9.05;3.60;;;8.90;99.90;;;;;;5014421;28;20034;-69
2021/04/24 07:09:56;;;;;;;12.02;4.35;;;9.00;99.90;;;;;;5032519;28;20056;-69
2021/04/24 07:12:21;;;;;;;15.63;5.97;;;9.20;99.90;;;;;;5032773;28;20486;-69
2021/04/24 07:14:47;;;;;;;11.75;4.43;;;9.30;99.90;;;;;;5030958;28;20107;-69
2021/04/24 07:17:15;;;;;;;11.23;4.13;;;9.40;99.90;;;;;;5032479;28;20030;-69
2021/04/24 07:19:41;;;;;;;8.40;4.18;;;9.60;99.90;;;;;;5032609;28;20044;-70
2021/04/24 07:22:07;;;;;;;6.72;3.40;;;9.70;99.90;;;;;;5032003;28;20046;-69
2021/04/24 07:24:35;;;;;;;11.05;3.60;;;9.70;99.90;;;;;;5032445;28;20065;-70
2021/04/24 07:27:01;;;;;;;8.60;3.45;;;9.80;99.90;;;;;;5032215;28;20033;-69
2021/04/24 07:29:26;;;;;;;6.80;3.35;;;10.00;99.40;;;;;;5032399;28;20025;-67
2021/04/24 07:31:55;;;;;;;12.93;4.07;;;10.00;99.20;;;;;;5032108;28;20025;-67
2021/04/24 07:34:21;;;;;;;7.75;3.65;;;10.30;98.90;;;;;;5032512;28;20112;-72
2021/04/24 07:36:47;;;;;;;11.05;3.22;;;10.30;99.10;;;;;;5032228;28;20120;-71
2021/04/24 07:39:15;;;;;;;9.30;3.03;;;10.40;98.50;;;;;;5031082;28;20029;-70
2021/04/24 07:41:45;;;;;;;11.82;3.58;;;10.50;98.00;;;;;;5032279;28;20043;-68
2021/04/24 07:44:11;;;;;;;9.77;3.58;;;10.60;97.80;;;;;;5032470;28;20034;-70
2021/04/24 07:46:36;;;;;;;9.65;3.13;;;10.70;97.80;;;;;;5032266;28;20022;-69
2021/04/24 07:49:03;;;;;;;10.52;3.50;;;10.80;97.60;;;;;;5032057;28;20034;-70
2021/04/24 07:51:29;;;;;;;9.27;3.63;;;10.90;96.90;;;;;;5032332;28;20079;-69
2021/04/24 07:53:55;;;;;;;8.23;3.55;;;11.10;96.60;;;;;;5032230;28;20421;-68
2021/04/24 07:56:21;;;;;;;12.23;3.08;;;11.20;96.60;;;;;;5036126;28;20037;-68
2021/04/24 07:58:46;;;;;;;7.47;3.28;;;11.30;96.40;;;;;;5035954;28;20040;-69
2021/04/24 08:01:12;;;;;;;7.75;3.50;;;11.50;96.10;;;;;;5036007;28;20348;-69
2021/04/24 08:03:38;;;;;;;7.25;3.25;;;11.70;95.60;;;;;;5036204;28;20022;-70
2021/04/24 08:06:04;;;;;;;16.25;6.00;;;11.70;95.70;;;;;;5035785;28;20080;-70
2021/04/24 08:08:30;;;;;;;10.20;3.40;;;11.80;95.60;;;;;;5035755;28;20044;-69
2021/04/24 08:10:56;;;;;;;11.90;4.20;;;11.80;95.30;;;;;;5035543;28;20038;-71
2021/04/24 08:13:22;;;;;;;9.55;3.65;;;11.90;95.00;;;;;;5035835;28;20382;-70
2021/04/24 08:15:49;;;;;;;11.43;3.97;;;12.00;94.60;;;;;;5035679;28;20087;-70
2021/04/24 08:18:15;;;;;;;11.98;3.70;;;12.10;94.40;;;;;;5035501;28;20025;-69
2021/04/24 08:20:40;;;;;;;12.23;4.28;;;12.30;94.30;;;;;;5034650;28;20053;-70
2021/04/24 08:23:06;;;;;;;8.82;4.05;;;12.40;98.80;;;;;;5034991;28;20033;-70
2021/04/24 08:25:34;;;;;;;6.72;2.88;;;12.60;96.00;;;;;;5035110;28;20038;-70
2021/04/24 08:28:00;;;;;;;9.20;3.70;;;12.70;93.30;;;;;;5017271;28;20394;-71
2021/04/24 08:30:27;;;;;;;6.72;3.30;;;12.80;94.00;;;;;;5035431;28;20025;-69
2021/04/24 08:32:53;;;;;;;7.30;3.35;;;12.90;92.30;;;;;;5035229;28;20041;-70
2021/04/24 08:35:19;;;;;;;9.68;3.20;;;12.90;92.30;;;;;;5035393;28;20039;-69
2021/04/24 08:37:45;;;;;;;7.55;3.53;;;13.10;92.00;;;;;;5035259;28;20029;-70
2021/04/24 08:40:14;;;;;;;9.63;3.90;;;13.10;91.60;;;;;;5035268;28;20038;-70
2021/04/24 08:42:41;;;;;;;10.02;3.42;;;13.20;91.00;;;;;;5035329;28;20029;-70
2021/04/24 08:45:15;;;;;;;10.20;3.75;;;13.30;90.50;;;;;;5035263;28;20099;-68
2021/04/24 08:47:53;;;;;;;7.90;3.40;;;13.50;90.50;;;;;;5034952;28;20045;-69
2021/04/24 08:50:26;;;;;;;13.38;4.35;;;13.60;90.30;;;;;;5035190;28;20031;-70
2021/04/24 08:52:55;;;;;;;8.73;3.78;;;13.90;90.50;;;;;;5035004;28;20593;-70
2021/04/24 08:55:28;;;;;;;12.77;4.18;;;13.90;90.40;;;;;;5033741;28;20116;-70
2021/04/24 08:57:54;;;;;;;7.45;3.60;;;14.10;90.20;;;;;;5034859;28;20033;-69
2021/04/24 09:00:28;;;;;;;11.60;4.78;;;14.20;88.50;;;;;;5035146;28;20525;-72
2021/04/24 09:02:56;;;;;;;10.70;4.38;;;14.20;88.00;;;;;;5034886;28;20041;-70
2021/04/24 09:05:23;;;;;;;12.27;4.05;;;14.30;87.90;;;;;;5034484;28;20391;-69
2021/04/24 09:08:00;;;;;;;9.73;4.20;;;14.50;87.20;;;;;;5034351;28;20033;-71
2021/04/24 09:10:26;;;;;;;11.45;3.92;;;14.70;85.20;;;;;;5034246;28;20061;-70
2021/04/24 09:12:52;;;;;;;9.85;3.65;;;14.80;83.70;;;;;;5034441;28;20037;-69
2021/04/24 09:15:25;;;;;;;10.27;4.35;;;15.00;83.40;;;;;;5034356;28;20486;-70
2021/04/24 09:17:55;;;;;;;10.45;4.03;;;15.10;83.30;;;;;;5034968;28;20030;-69
2021/04/24 09:20:26;;;;;;;10.45;4.35;;;15.20;81.00;;;;;;5033037;28;20069;-72
2021/04/24 09:22:57;;;;;;;10.45;3.72;;;15.20;81.60;;;;;;5034734;28;20061;-71
2021/04/24 09:25:47;;;;;;;11.68;5.53;;;15.10;81.90;;;;;;5034640;28;20040;-69
2021/04/24 09:28:37;;;;;;;8.73;4.07;;;15.40;80.90;;;;;;5034408;28;20041;-69
2021/04/24 09:31:23;;;;;;;8.05;4.15;;;15.60;79.20;;;;;;5034362;28;20064;-70
2021/04/24 09:34:01;;;;;;;13.20;3.97;;;15.60;78.20;;;;;;5034412;28;20029;-70
2021/04/24 09:36:38;;;;;;;12.93;5.43;;;15.80;75.90;;;;;;5034375;28;20029;-70
2021/04/24 09:39:08;;;;;;;13.07;3.63;;;16.00;75.50;;;;;;5034116;28;20029;-68
2021/04/24 09:41:41;;;;;;;9.60;4.03;;;16.10;74.80;;;;;;5034389;28;20095;-69
2021/04/24 09:44:14;;;;;;;11.23;3.85;;;15.90;75.80;;;;;;5034134;28;20079;-69
2021/04/24 09:46:45;;;;;;;10.05;4.68;;;16.00;74.20;;;;;;5034374;28;20068;-68
2021/04/24 09:49:20;;;;;;;12.05;4.35;;;16.00;75.10;;;;;;5033858;28;20044;-71
2021/04/24 09:52:00;;;;;;;13.13;4.32;;;15.80;74.40;;;;;;5034124;28;20025;-70
2021/04/24 09:54:42;;;;;;;9.48;4.05;;;15.90;74.30;;;;;;5034072;28;20100;-69
2021/04/24 09:57:14;;;;;;;10.98;3.95;;;16.20;73.80;;;;;;5033963;28;20124;-70
2021/04/24 10:00:07;;;;;;;10.80;4.65;;;16.50;71.50;;;;;;5033749;28;20034;-70
2021/04/24 10:02:40;;;;;;;8.65;3.97;;;16.80;70.30;;;;;;5031994;28;20517;-70
2021/04/24 10:05:18;;;;;;;11.20;3.80;;;17.00;69.90;;;;;;5033826;28;20030;-71
2021/04/24 10:07:45;;;;;;;10.85;4.10;;;17.10;67.80;;;;;;5034208;28;20033;-70
2021/04/24 10:10:29;;;;;;;9.60;3.30;;;17.30;67.00;;;;;;5033378;28;20117;-71
2021/04/24 10:13:03;;;;;;;11.38;3.97;;;17.50;66.40;;;;;;5033872;28;20073;-71
2021/04/24 10:15:44;;;;;;;8.60;3.10;;;17.30;65.20;;;;;;5033383;28;20031;-71
2021/04/24 10:18:14;;;;;;;8.60;3.50;;;17.40;64.70;;;;;;5033405;28;20025;-70
2021/04/24 10:20:46;;;;;;;12.37;6.47;;;17.40;63.80;;;;;;5033258;28;20057;-70
2021/04/24 10:23:14;;;;;;;10.80;4.25;;;17.10;64.60;;;;;;5033480;28;20120;-69
2021/04/24 10:25:43;;;;;;;9.70;3.80;;;17.50;64.00;;;;;;5032018;28;20033;-70
2021/04/24 10:28:09;;;;;;;11.15;3.35;;;17.50;63.20;;;;;;5031986;28;20125;-67
2021/04/24 10:30:34;;;;;;;9.48;3.60;;;17.80;62.80;;;;;;5035301;28;20111;-71
2021/04/24 10:33:03;;;;;;;8.75;3.47;;;18.20;61.50;;;;;;5032960;28;20029;-70
2021/04/24 10:35:32;;;;;;;10.93;3.95;;;18.20;61.90;;;;;;5025962;28;20099;-71
2021/04/24 10:38:02;;;;;;;11.40;3.63;;;17.90;61.40;;;;;;5032993;28;20082;-69
2021/04/24 10:40:29;;;;;;;9.88;4.20;;;17.90;62.00;;;;;;5025608;28;20121;-69
2021/04/24 10:42:58;;;;;;;11.07;4.18;;;18.00;59.70;;;;;;5031430;28;20506;-73
2021/04/24 10:45:42;;;;;;;7.90;3.33;;;18.40;59.60;;;;;;5024776;28;20547;-72
2021/04/24 10:48:25;;;;;;;7.45;3.63;;;18.70;57.80;;;;;;5032162;28;20406;-73
2021/04/24 10:50:51;;;;;;;10.38;3.72;;;18.60;57.30;;;;;;5032907;28;20065;-71
2021/04/24 10:53:25;;;;;;;11.25;3.90;;;18.40;60.10;;;;;;5032606;28;20084;-70
2021/04/24 10:55:54;;;;;;;12.18;3.65;;;18.60;58.30;;;;;;5033107;28;20033;-71
2021/04/24 10:58:24;;;;;;;8.18;3.40;;;19.00;55.90;;;;;;5032827;28;20358;-69
2021/04/24 11:00:55;;;;;;;9.50;3.88;;;19.10;54.90;;;;;;5032422;28;20509;-69
2021/04/24 11:03:51;;;;;;;;;;;19.20;56.20;;;;;;5033437;28;20065;-71
2021/04/24 11:06:18;;;;;;;11.80;3.88;;;19.60;54.00;;;;;;5014804;28;19913;-70
2021/04/24 11:08:45;;;;;;;10.40;3.70;;;19.60;54.60;;;;;;5032424;28;20041;-69
2021/04/24 11:11:14;;;;;;;7.13;3.08;;;18.70;53.00;;;;;;5030798;28;20034;-71
2021/04/24 11:13:43;;;;;;;9.85;3.38;;;19.10;54.80;;;;;;5032556;28;20026;-68
2021/04/24 11:16:16;;;;;;;9.05;3.45;;;18.70;52.30;;;;;;5032121;28;20037;-68
2021/04/24 11:18:50;;;;;;;6.13;2.97;;;19.20;55.10;;;;;;5032624;28;20080;-69
2021/04/24 11:21:24;;;;;;;10.98;3.40;;;19.70;51.60;;;;;;5014805;28;20049;-69
2021/04/24 11:23:58;;;;;;;9.27;3.10;;;19.70;52.70;;;;;;5014548;28;20030;-69
2021/04/24 11:26:35;;;;;;;9.60;3.00;;;20.40;50.90;;;;;;5032087;28;20038;-69
2021/04/24 11:29:12;;;;;;;6.47;3.28;;;20.50;50.10;;;;;;5031991;28;20038;-69
2021/04/24 11:32:08;;;;;;;8.25;3.28;;;20.50;50.70;;;;;;5032497;28;20072;-67
2021/04/24 11:34:45;;;;;;;9.88;3.40;;;21.00;49.50;;;;;;5032450;28;20122;-70
2021/04/24 11:37:28;;;;;;;7.53;3.55;;;21.00;48.00;;;;;;5032011;28;20088;-68
2021/04/24 11:40:23;;;;;;;11.13;4.07;;;20.80;47.80;;;;;;5032327;28;20071;-68
2021/04/24 11:42:52;;;;;;;8.13;2.75;;;20.40;48.80;;;;;;5032233;28;20030;-66
2021/04/24 11:45:51;;;;;;;10.40;3.30;;;20.90;48.20;;;;;;5031752;28;20414;-63
2021/04/24 11:48:47;;;;;;;8.38;3.10;;;20.70;48.10;;;;;;5032125;28;20064;-53
2021/04/24 11:51:44;;;;;;;8.40;3.80;;;20.60;48.70;;;;;;5031669;28;20453;-54
2021/04/24 11:54:25;;;;;;;8.15;3.72;;;20.50;48.80;;;;;;5032025;28;20053;-50
2021/04/24 11:56:51;;;;;;;7.38;2.80;;;20.90;53.80;;;;;;5011324;28;20056;-53
2021/04/24 11:59:33;;;;;;;9.32;3.53;;;21.40;50.10;;;;;;5031836;28;20033;-51
2021/04/24 12:02:13;;;;;;;6.75;3.10;;;21.80;47.00;;;;;;5031982;28;20026;-50
2021/04/24 12:04:39;;;;;;;9.55;3.58;;;21.90;49.30;;;;;;5032014;28;20045;-54
2021/04/24 12:07:13;;;;;;;10.07;3.40;;;21.70;48.20;;;;;;5031970;28;20025;-50
2021/04/24 12:10:01;;;;;;;8.82;3.85;;;21.90;47.40;;;;;;5030333;28;20114;-53
2021/04/24 12:12:41;;;;;;;21.63;4.93;;;21.80;45.60;;;;;;5031716;28;20041;-50
2021/04/24 12:15:12;;;;;;;7.55;3.05;;;21.40;48.00;;;;;;5031627;28;20037;-48
2021/04/24 12:18:05;;;;;;;8.95;3.47;;;21.50;46.60;;;;;;5013914;28;20723;-48
2021/04/24 12:20:45;;;;;;;9.50;3.88;;;21.80;45.40;;;;;;5020549;28;20375;-76
2021/04/24 12:23:17;;;;;;;6.60;3.47;;;21.60;45.10;;;;;;5011740;28;20114;-62
2021/04/24 12:25:48;;;;;;;11.13;3.42;;;21.70;44.70;;;;;;5012094;28;20030;-68
2021/04/24 12:28:15;;;;;;;8.15;3.25;;;21.70;44.80;;;;;;5011477;28;20053;-68
2021/04/24 12:30:44;;;;;;;10.52;4.00;;;21.50;44.90;;;;;;5010261;28;20048;-68
2021/04/24 12:33:21;;;;;;;8.57;4.13;;;21.50;45.00;;;;;;4993811;28;20049;-68
2021/04/24 12:36:03;;;;;;;9.25;3.30;;;21.40;45.40;;;;;;4994153;28;20030;-66
2021/04/24 12:38:31;;;;;;;10.35;4.00;;;21.80;45.10;;;;;;5005826;28;20045;-67
2021/04/24 12:41:03;;;;;;;9.18;4.15;;;21.80;45.40;;;;;;5010539;28;20399;-67
2021/04/24 12:43:30;;;;;;;8.45;3.85;;;21.90;44.50;;;;;;5015349;28;20163;-65
2021/04/24 12:46:04;;;;;;;8.57;3.88;;;22.00;44.70;;;;;;5014955;28;20486;-66
2021/04/24 12:48:42;;;;;;;8.82;3.50;;;22.00;48.50;;;;;;5015371;28;20430;-65
2021/04/24 12:51:21;;;;;;;8.55;4.35;;;21.80;45.30;;;;;;5015092;28;20430;-65
2021/04/24 12:53:51;;;;;;;9.50;3.88;;;22.30;44.20;;;;;;5013882;28;20077;-66
2021/04/24 12:56:26;;;;;;;10.97;3.67;;;22.30;45.60;;;;;;5007352;28;20034;-66
2021/04/24 12:58:54;;;;;;;11.15;5.80;;;22.40;44.10;;;;;;5013981;28;20033;-65